createdAt,value
2019-01-18T00:01:28.333Z,1.70
2019-01-18T00:03:57.591Z,1.60
2019-01-18T00:06:26.885Z,1.60
2019-01-18T00:08:56.144Z,1.70
2019-01-18T00:11:25.435Z,1.70
2019-01-18T00:13:54.925Z,1.60
2019-01-18T00:16:24.239Z,1.70
2019-01-18T00:18:53.872Z,1.60
2019-01-18T00:21:23.160Z,1.70
2019-01-18T00:23:52.918Z,1.70
2019-01-18T00:26:22.261Z,1.70
2019-01-18T00:28:54.346Z,1.70
2019-01-18T00:31:23.647Z,1.70
2019-01-18T00:33:52.920Z,1.70
2019-01-18T00:36:22.292Z,1.70
2019-01-18T00:38:51.664Z,1.80
2019-01-18T00:41:21.299Z,1.80
2019-01-18T00:43:50.768Z,1.80
2019-01-18T00:46:20.333Z,1.80
2019-01-18T00:48:49.644Z,1.70
2019-01-18T00:51:18.950Z,1.80
2019-01-18T00:53:48.262Z,1.70
2019-01-18T00:56:17.539Z,1.70
2019-01-18T00:58:46.818Z,1.70
2019-01-18T01:01:16.115Z,1.80
2019-01-18T01:03:45.456Z,1.80
2019-01-18T01:06:14.797Z,1.80
2019-01-18T01:08:44.054Z,1.80
2019-01-18T01:11:13.381Z,1.70
2019-01-18T01:13:42.650Z,1.80
2019-01-18T01:16:12.362Z,1.80
2019-01-18T01:18:41.798Z,1.80
2019-01-18T01:21:11.148Z,1.80
2019-01-18T01:23:40.818Z,1.80
2019-01-18T01:26:10.106Z,1.90
2019-01-18T01:28:39.449Z,1.80
2019-01-18T01:31:08.784Z,1.80
2019-01-18T01:33:38.124Z,1.80
2019-01-18T01:36:07.430Z,1.90
2019-01-18T01:38:37.089Z,1.90
2019-01-18T01:41:06.440Z,1.90
2019-01-18T01:43:35.849Z,1.90
2019-01-18T01:46:06.152Z,2.00
2019-01-18T01:48:35.407Z,2.00
2019-01-18T01:51:04.869Z,1.90
2019-01-18T01:53:34.200Z,1.90
2019-01-18T01:56:03.420Z,1.90
2019-01-18T01:58:32.704Z,2.00
2019-01-18T02:01:02.388Z,2.00
2019-01-18T02:03:31.691Z,2.00
2019-01-18T02:06:00.971Z,1.90
2019-01-18T02:08:30.255Z,1.90
2019-01-18T02:10:59.530Z,1.90
2019-01-18T02:13:28.824Z,1.90
2019-01-18T02:15:58.278Z,1.90
2019-01-18T02:18:27.551Z,1.80
2019-01-18T02:20:56.849Z,1.80
2019-01-18T02:23:26.161Z,1.70
2019-01-18T02:25:55.840Z,1.70
2019-01-18T02:28:25.133Z,1.70
2019-01-18T02:30:55.115Z,1.70
2019-01-18T02:33:24.384Z,1.70
2019-01-18T02:35:53.755Z,1.60
2019-01-18T02:38:23.556Z,1.60
2019-01-18T02:40:55.299Z,1.60
2019-01-18T02:43:25.019Z,1.60
2019-01-18T02:45:55.736Z,1.50
2019-01-18T02:48:25.008Z,1.50
2019-01-18T02:50:56.401Z,1.50
2019-01-18T02:53:25.675Z,1.50
2019-01-18T02:55:57.853Z,1.40
2019-01-18T02:58:27.595Z,1.40
2019-01-18T03:00:56.884Z,1.40
2019-01-18T03:03:26.159Z,1.40
2019-01-18T03:05:55.504Z,1.40
2019-01-18T03:08:24.784Z,1.40
2019-01-18T03:10:56.916Z,1.30
2019-01-18T03:13:26.205Z,1.30
2019-01-18T03:15:55.577Z,1.30
2019-01-18T03:18:24.958Z,1.30
2019-01-18T03:20:57.055Z,1.30
2019-01-18T03:23:26.399Z,1.20
2019-01-18T03:25:55.936Z,1.20
2019-01-18T03:28:25.257Z,1.20
2019-01-18T03:30:57.936Z,1.20
2019-01-18T03:33:27.593Z,1.20
2019-01-18T03:35:56.893Z,1.10
2019-01-18T03:38:26.194Z,1.20
2019-01-18T03:40:58.140Z,1.10
2019-01-18T03:43:27.452Z,1.00
2019-01-18T03:45:56.754Z,1.10
2019-01-18T03:48:26.036Z,1.10
2019-01-18T03:50:58.453Z,1.10
2019-01-18T03:53:28.131Z,1.10
2019-01-18T03:55:57.706Z,1.20
2019-01-18T03:58:27.310Z,1.20
2019-01-18T04:00:56.545Z,1.20
2019-01-18T04:03:25.858Z,1.20
2019-01-18T04:05:56.693Z,1.30
2019-01-18T04:08:26.000Z,1.30
2019-01-18T04:10:55.410Z,1.30
2019-01-18T04:13:24.727Z,1.30
2019-01-18T04:15:56.198Z,1.30
2019-01-18T04:18:25.513Z,1.30
2019-01-18T04:20:56.660Z,1.30
2019-01-18T04:23:25.947Z,1.30
2019-01-18T04:25:58.323Z,1.30
2019-01-18T04:28:29.897Z,1.30
2019-01-18T04:30:58.707Z,1.20
2019-01-18T04:33:28.003Z,1.30
2019-01-18T04:35:57.392Z,1.30
2019-01-18T04:38:26.665Z,1.20
2019-01-18T04:40:57.480Z,1.20
2019-01-18T04:43:26.786Z,1.20
2019-01-18T04:45:56.096Z,1.30
2019-01-18T04:48:25.718Z,1.40
2019-01-18T04:50:55.033Z,1.30
2019-01-18T04:53:24.312Z,1.30
2019-01-18T04:55:53.620Z,1.30
2019-01-18T04:58:23.255Z,1.30
2019-01-18T05:00:52.846Z,1.20
2019-01-18T05:03:22.285Z,1.20
2019-01-18T05:05:51.565Z,1.20
2019-01-18T05:08:21.207Z,1.20
2019-01-18T05:10:50.469Z,1.20
2019-01-18T05:13:19.841Z,1.20
2019-01-18T05:15:49.103Z,1.20
2019-01-18T05:18:18.788Z,1.10
2019-01-18T05:20:48.070Z,1.10
2019-01-18T05:23:17.380Z,1.10
2019-01-18T05:25:46.741Z,1.10
2019-01-18T05:28:16.149Z,1.10
2019-01-18T05:30:47.763Z,1.10
2019-01-18T05:33:16.440Z,1.20
2019-01-18T05:35:45.715Z,1.20
2019-01-18T05:38:15.066Z,1.10
2019-01-18T05:40:44.347Z,1.10
2019-01-18T05:43:13.647Z,1.20
2019-01-18T05:45:43.315Z,1.20
2019-01-18T05:48:12.602Z,1.20
2019-01-18T05:50:41.899Z,1.20
2019-01-18T05:53:11.581Z,1.30
2019-01-18T05:55:40.872Z,1.30
2019-01-18T05:58:10.189Z,1.40
2019-01-18T06:00:42.827Z,1.30
2019-01-18T06:03:12.101Z,1.30
2019-01-18T06:05:43.284Z,1.30
2019-01-18T06:08:12.671Z,1.30
2019-01-18T06:10:42.264Z,1.40
2019-01-18T06:13:11.550Z,1.30
2019-01-18T06:15:40.842Z,1.30
2019-01-18T06:18:10.248Z,1.30
2019-01-18T06:20:39.503Z,1.20
2019-01-18T06:23:09.260Z,1.20
2019-01-18T06:25:38.708Z,1.20
2019-01-18T06:28:08.477Z,1.10
2019-01-18T06:30:37.845Z,1.10
2019-01-18T06:33:07.229Z,1.10
2019-01-18T06:35:36.691Z,1.00
2019-01-18T06:38:06.188Z,1.00
2019-01-18T06:40:35.451Z,1.00
2019-01-18T06:43:04.873Z,1.00
2019-01-18T06:45:34.764Z,1.00
2019-01-18T06:48:04.739Z,0.90
2019-01-18T06:50:33.983Z,0.90
2019-01-18T06:53:03.472Z,0.80
2019-01-18T06:55:32.773Z,0.80
2019-01-18T06:58:02.068Z,0.80
2019-01-18T07:00:33.168Z,0.90
2019-01-18T07:03:02.692Z,1.00
2019-01-18T07:05:32.316Z,0.90
2019-01-18T07:08:03.706Z,0.90
2019-01-18T07:10:32.974Z,0.90
2019-01-18T07:13:04.593Z,0.90
2019-01-18T07:15:33.864Z,0.90
2019-01-18T07:18:03.267Z,0.80
2019-01-18T07:20:32.551Z,0.90
2019-01-18T07:23:04.310Z,0.80
2019-01-18T07:25:33.576Z,0.80
2019-01-18T07:28:03.015Z,0.80
2019-01-18T07:30:40.189Z,0.80
2019-01-18T07:33:11.978Z,0.70
2019-01-18T07:35:41.246Z,0.70
2019-01-18T07:38:10.563Z,0.60
2019-01-18T07:40:39.854Z,0.60
2019-01-18T07:43:09.147Z,0.60
2019-01-18T07:45:38.632Z,0.60
2019-01-18T07:48:08.173Z,0.60
2019-01-18T07:50:37.487Z,0.60
2019-01-18T07:53:06.768Z,0.60
2019-01-18T07:55:36.155Z,0.60
2019-01-18T07:58:05.423Z,0.60
2019-01-18T08:00:34.717Z,0.60
2019-01-18T08:03:04.141Z,0.60
2019-01-18T08:05:33.987Z,0.60
2019-01-18T08:08:05.045Z,0.60
2019-01-18T08:10:34.318Z,0.70
2019-01-18T08:13:04.313Z,0.70
2019-01-18T08:15:33.675Z,0.80
2019-01-18T08:18:03.000Z,0.90
2019-01-18T08:20:33.988Z,0.90
2019-01-18T08:23:03.785Z,1.00
2019-01-18T08:25:33.173Z,1.00
2019-01-18T08:28:03.664Z,1.00
2019-01-18T08:30:33.237Z,1.00
2019-01-18T08:33:02.551Z,1.10
2019-01-18T08:35:32.580Z,1.20
2019-01-18T08:38:02.020Z,1.20
2019-01-18T08:40:42.660Z,1.20
2019-01-18T08:43:14.004Z,1.20
2019-01-18T08:45:55.067Z,1.20
2019-01-18T08:48:24.377Z,1.30
2019-01-18T08:50:54.160Z,1.30
2019-01-18T08:53:23.488Z,1.40
2019-01-18T08:55:52.751Z,1.30
2019-01-18T08:58:22.080Z,1.40
2019-01-18T09:00:51.433Z,1.40
2019-01-18T09:03:20.692Z,1.40
2019-01-18T09:05:50.024Z,1.40
2019-01-18T09:08:19.342Z,1.40
2019-01-18T09:10:48.668Z,1.50
2019-01-18T09:13:18.509Z,1.60
2019-01-18T09:15:47.971Z,1.60
2019-01-18T09:18:17.352Z,1.60
2019-01-18T09:20:46.664Z,1.60
2019-01-18T09:23:16.024Z,1.60
2019-01-18T09:25:45.332Z,1.70
2019-01-18T09:28:14.693Z,1.70
2019-01-18T09:30:44.042Z,1.80
2019-01-18T09:33:13.614Z,1.80
2019-01-18T09:35:43.567Z,1.80
2019-01-18T09:38:17.924Z,1.80
2019-01-18T09:40:46.346Z,1.80
2019-01-18T09:43:15.635Z,1.80
2019-01-18T09:45:44.959Z,1.90
2019-01-18T09:48:14.516Z,2.00
2019-01-18T09:50:43.842Z,2.00
2019-01-18T09:53:13.305Z,2.10
2019-01-18T09:55:42.608Z,2.20
2019-01-18T09:58:13.514Z,2.20
2019-01-18T10:00:42.885Z,2.20
2019-01-18T10:03:12.235Z,2.20
2019-01-18T10:05:41.577Z,2.20
2019-01-18T10:08:12.526Z,2.20
2019-01-18T10:10:41.989Z,2.30
2019-01-18T10:13:12.891Z,2.30
2019-01-18T10:15:44.229Z,2.30
2019-01-18T10:18:13.891Z,2.30
2019-01-18T10:20:43.189Z,2.40
2019-01-18T10:23:12.485Z,2.40
2019-01-18T10:25:41.735Z,2.40
2019-01-18T10:28:11.039Z,2.40
2019-01-18T10:30:40.385Z,2.50
2019-01-18T10:33:09.716Z,2.60
2019-01-18T10:35:39.115Z,2.60
2019-01-18T10:38:08.624Z,2.60
2019-01-18T10:40:38.344Z,2.60
2019-01-18T10:43:07.612Z,2.70
2019-01-18T10:45:36.960Z,2.80
2019-01-18T10:48:06.259Z,2.80
2019-01-18T10:50:35.554Z,2.90
2019-01-18T10:53:05.269Z,2.90
2019-01-18T10:55:34.748Z,2.80
2019-01-18T10:58:05.175Z,2.80
2019-01-18T11:00:36.358Z,2.80
2019-01-18T11:03:06.016Z,2.70
2019-01-18T11:05:35.573Z,2.70
2019-01-18T11:08:07.454Z,2.70
2019-01-18T11:10:36.744Z,2.60
2019-01-18T11:13:06.415Z,2.60
2019-01-18T11:15:36.266Z,2.60
2019-01-18T11:18:06.539Z,2.60
2019-01-18T11:20:58.100Z,2.70
2019-01-18T11:23:27.418Z,2.60
2019-01-18T11:25:56.808Z,2.60
2019-01-18T11:28:26.125Z,2.60
2019-01-18T11:30:55.406Z,2.60
2019-01-18T11:33:24.722Z,2.60
2019-01-18T11:35:54.372Z,2.60
2019-01-18T11:38:23.680Z,2.50
2019-01-18T11:40:53.013Z,2.50
2019-01-18T11:43:22.348Z,2.40
2019-01-18T11:45:51.673Z,2.40
2019-01-18T11:48:21.173Z,2.40
2019-01-18T11:50:50.837Z,2.50
2019-01-18T11:53:20.160Z,2.40
2019-01-18T11:55:49.484Z,2.40
2019-01-18T11:58:18.904Z,2.40
2019-01-18T12:00:48.248Z,2.40
2019-01-18T12:03:17.547Z,2.40
2019-01-18T12:05:46.853Z,2.40
2019-01-18T12:08:16.592Z,2.50
2019-01-18T12:10:45.874Z,2.50
2019-01-18T12:13:15.180Z,2.60
2019-01-18T12:15:44.463Z,2.60
2019-01-18T12:18:13.741Z,2.70
2019-01-18T12:20:43.132Z,2.70
2019-01-18T12:23:12.414Z,2.80
2019-01-18T12:25:41.703Z,2.80
2019-01-18T12:28:10.979Z,3.00
2019-01-18T12:30:40.410Z,3.00
2019-01-18T12:33:09.677Z,3.00
2019-01-18T12:35:38.940Z,3.00
2019-01-18T12:38:08.201Z,3.00
2019-01-18T12:40:37.496Z,2.90
2019-01-18T12:43:06.957Z,3.00
2019-01-18T12:45:36.267Z,3.00
2019-01-18T12:48:06.068Z,3.20
2019-01-18T12:50:37.674Z,3.30
2019-01-18T12:53:07.666Z,3.30
2019-01-18T12:55:37.268Z,3.40
2019-01-18T12:58:07.308Z,3.30
2019-01-18T13:00:37.140Z,3.30
2019-01-18T13:03:07.436Z,3.30
2019-01-18T13:05:48.640Z,3.30
2019-01-18T13:08:20.013Z,3.30
2019-01-18T13:10:49.295Z,3.40
2019-01-18T13:13:18.734Z,3.40
2019-01-18T13:16:09.416Z,3.50
2019-01-18T13:18:39.380Z,3.40
2019-01-18T13:21:08.660Z,3.30
2019-01-18T13:23:38.014Z,3.30
2019-01-18T13:26:07.292Z,3.40
2019-01-18T13:28:36.593Z,3.40
2019-01-18T13:31:06.329Z,3.40
2019-01-18T13:33:35.659Z,3.50
2019-01-18T13:36:09.470Z,3.40
2019-01-18T13:38:38.873Z,3.40
2019-01-18T13:41:08.271Z,3.40
2019-01-18T13:43:37.605Z,3.50
2019-01-18T13:46:06.972Z,3.50
2019-01-18T13:48:36.347Z,3.60
2019-01-18T13:51:06.028Z,3.60
2019-01-18T13:53:35.399Z,3.60
2019-01-18T13:56:04.753Z,3.60
2019-01-18T13:58:34.047Z,3.60
2019-01-18T14:01:03.353Z,3.50
2019-01-18T14:03:35.633Z,3.50
2019-01-18T14:06:05.312Z,3.50
2019-01-18T14:08:34.583Z,3.50
2019-01-18T14:11:08.195Z,3.50
2019-01-18T14:13:37.589Z,3.50
2019-01-18T14:16:07.008Z,3.40
2019-01-18T14:18:36.310Z,3.40
2019-01-18T14:21:05.824Z,3.40
2019-01-18T14:23:35.097Z,3.40
2019-01-18T14:26:04.559Z,3.20
2019-01-18T14:28:33.926Z,3.20
2019-01-18T14:31:03.685Z,3.30
2019-01-18T14:33:32.954Z,3.30
2019-01-18T14:36:02.447Z,3.20
2019-01-18T14:38:32.105Z,3.20
2019-01-18T14:41:01.364Z,3.20
2019-01-18T14:43:31.006Z,3.20
2019-01-18T14:46:00.265Z,3.30
2019-01-18T14:48:29.595Z,3.40
2019-01-18T14:50:59.548Z,3.40
2019-01-18T14:53:28.983Z,3.30
2019-01-18T14:55:58.661Z,3.40
2019-01-18T14:58:27.992Z,3.40
2019-01-18T15:00:57.305Z,3.40
2019-01-18T15:03:26.671Z,3.40
2019-01-18T15:05:56.243Z,3.50
2019-01-18T15:08:28.378Z,3.40
2019-01-18T15:10:58.088Z,3.40
2019-01-18T15:13:27.395Z,3.40
2019-01-18T15:15:56.791Z,3.30
2019-01-18T15:18:32.229Z,3.20
2019-01-18T15:21:01.610Z,3.10
2019-01-18T15:23:30.924Z,3.00
2019-01-18T15:26:00.226Z,3.00
2019-01-18T15:28:29.907Z,3.00
2019-01-18T15:30:59.271Z,2.80
2019-01-18T15:33:29.284Z,2.60
2019-01-18T15:35:58.616Z,2.50
2019-01-18T15:38:28.062Z,2.40
2019-01-18T15:41:00.698Z,2.40
2019-01-18T15:43:30.473Z,2.40
2019-01-18T15:45:59.787Z,2.20
2019-01-18T15:48:29.078Z,2.20
2019-01-18T15:50:58.463Z,2.20
2019-01-18T15:53:30.388Z,2.10
2019-01-18T15:55:59.828Z,2.20
2019-01-18T15:58:29.101Z,2.10
2019-01-18T16:00:58.588Z,2.00
2019-01-18T16:03:28.031Z,2.00
2019-01-18T16:05:57.493Z,2.10
2019-01-18T16:08:30.017Z,2.10
2019-01-18T16:10:59.388Z,2.10
2019-01-18T16:13:32.182Z,2.20
2019-01-18T16:16:23.469Z,2.20
2019-01-18T16:18:53.484Z,2.20
2019-01-18T16:21:25.335Z,2.20
2019-01-18T16:23:55.033Z,2.30
2019-01-18T16:26:24.375Z,2.20
2019-01-18T16:28:53.696Z,2.20
2019-01-18T16:31:25.117Z,2.20
2019-01-18T16:33:54.527Z,2.10
2019-01-18T16:36:26.948Z,2.10
2019-01-18T16:38:56.240Z,2.10
2019-01-18T16:41:26.603Z,2.00
2019-01-18T16:43:58.242Z,1.90
2019-01-18T16:46:27.544Z,1.90
2019-01-18T16:48:56.844Z,1.90
2019-01-18T16:51:27.464Z,1.90
2019-01-18T16:53:59.129Z,1.90
2019-01-18T16:56:28.439Z,1.90
2019-01-18T16:58:57.716Z,1.90
2019-01-18T17:01:27.088Z,1.70
2019-01-18T17:03:56.384Z,1.70
2019-01-18T17:06:25.651Z,1.70
2019-01-18T17:08:54.949Z,1.70
2019-01-18T17:11:24.283Z,1.70
2019-01-18T17:13:53.597Z,1.70
2019-01-18T17:16:23.029Z,1.70
2019-01-18T17:18:52.693Z,1.70
2019-01-18T17:21:21.999Z,1.60
2019-01-18T17:23:51.560Z,1.60
2019-01-18T17:26:21.231Z,1.60
2019-01-18T17:28:50.496Z,1.60
2019-01-18T17:31:19.859Z,1.50
2019-01-18T17:33:49.463Z,1.50
2019-01-18T17:36:44.784Z,1.60
2019-01-18T17:39:52.256Z,1.60
2019-01-18T17:42:50.104Z,1.60
2019-01-18T17:45:43.596Z,1.70
2019-01-18T17:49:12.296Z,1.70
2019-01-18T17:52:00.808Z,1.70
2019-01-18T17:55:19.268Z,1.60
2019-01-18T17:58:08.970Z,1.60
2019-01-18T18:01:21.583Z,1.70
2019-01-18T18:04:21.326Z,1.60
2019-01-18T18:07:26.863Z,1.60
2019-01-18T18:10:33.297Z,1.60
2019-01-18T18:13:28.777Z,1.60
2019-01-18T18:16:30.291Z,1.50
2019-01-18T18:19:27.819Z,1.50
2019-01-18T18:22:31.660Z,1.50
2019-01-18T18:25:41.891Z,1.50
2019-01-18T18:28:54.094Z,1.40
2019-01-18T18:32:15.865Z,1.40
2019-01-18T18:35:20.203Z,1.40
2019-01-18T18:38:18.601Z,1.40
2019-01-18T18:41:24.448Z,1.30
2019-01-18T18:44:17.100Z,1.30
2019-01-18T18:47:05.768Z,1.30
2019-01-18T18:50:16.039Z,1.20
2019-01-18T18:53:15.847Z,1.20
2019-01-18T18:56:20.010Z,1.20
2019-01-18T18:59:23.705Z,1.20
2019-01-18T19:02:46.344Z,1.20
2019-01-18T19:06:02.644Z,1.10
2019-01-18T19:09:10.519Z,1.10
2019-01-18T19:11:54.540Z,1.20
2019-01-18T19:14:53.929Z,1.20
2019-01-18T19:18:09.641Z,1.20
2019-01-18T19:21:02.510Z,1.30
2019-01-18T19:23:51.310Z,1.20
2019-01-18T19:27:10.909Z,1.10
2019-01-18T19:30:16.588Z,1.10
2019-01-18T19:33:13.856Z,1.10
2019-01-18T19:36:06.508Z,1.00
2019-01-18T19:39:32.155Z,1.00
2019-01-18T19:42:54.831Z,0.90
2019-01-18T19:45:50.777Z,0.80
2019-01-18T19:48:59.929Z,0.70
2019-01-18T19:52:07.461Z,0.70
2019-01-18T19:54:47.720Z,0.80
2019-01-18T19:58:16.518Z,0.60
2019-01-18T20:01:08.336Z,0.60
2019-01-18T20:04:01.779Z,0.60
2019-01-18T20:06:57.899Z,0.60
2019-01-18T20:09:48.942Z,0.60
2019-01-18T20:13:02.958Z,0.60
2019-01-18T20:16:12.286Z,0.60
2019-01-18T20:19:35.957Z,0.50
2019-01-18T20:22:44.585Z,0.50
2019-01-18T20:25:51.179Z,0.40
2019-01-18T20:28:56.099Z,0.30
2019-01-18T20:32:15.963Z,0.40
2019-01-18T20:35:21.519Z,0.20
2019-01-18T20:38:38.067Z,0.20
2019-01-18T20:41:40.345Z,0.20
2019-01-18T20:44:42.403Z,0.00
2019-01-18T20:48:07.232Z,0.00
2019-01-18T20:51:32.559Z,-0.10
2019-01-18T20:54:25.799Z,0.00
2019-01-18T20:57:50.583Z,0.10
2019-01-18T21:00:57.850Z,0.10
2019-01-18T21:03:57.427Z,-0.10
2019-01-18T21:06:52.005Z,-0.20
2019-01-18T21:10:01.212Z,-0.20
2019-01-18T21:13:15.025Z,-0.10
2019-01-18T21:16:12.516Z,-0.10
2019-01-18T21:19:31.612Z,-0.10
2019-01-18T21:22:29.920Z,-0.20
2019-01-18T21:25:50.743Z,-0.20
2019-01-18T21:28:43.236Z,-0.30
2019-01-18T21:31:22.249Z,-0.30
2019-01-18T21:34:09.439Z,-0.30
2019-01-18T21:37:19.017Z,-0.20
2019-01-18T21:40:16.434Z,-0.20
2019-01-18T21:43:11.766Z,-0.10
2019-01-18T21:46:05.481Z,-0.10
2019-01-18T21:49:25.109Z,-0.10
2019-01-18T21:52:24.539Z,-0.20
2019-01-18T21:55:14.752Z,-0.30
2019-01-18T21:58:32.155Z,-0.30
2019-01-18T22:01:34.995Z,-0.40
2019-01-18T22:04:54.220Z,-0.40
2019-01-18T22:07:54.019Z,-0.40
2019-01-18T22:10:57.363Z,-0.50
2019-01-18T22:14:19.643Z,-0.40
2019-01-18T22:17:28.199Z,-0.40
2019-01-18T22:20:18.125Z,-0.40
2019-01-18T22:23:16.192Z,-0.40
2019-01-18T22:26:36.587Z,-0.50
2019-01-18T22:30:01.977Z,-0.60
2019-01-18T22:33:06.008Z,-0.70
2019-01-18T22:36:15.535Z,-0.70
2019-01-18T22:39:37.066Z,-0.60
2019-01-18T22:42:37.972Z,-0.50
2019-01-18T22:45:34.096Z,-0.60
2019-01-18T22:48:34.728Z,-0.60
2019-01-18T22:51:39.832Z,-0.50
2019-01-18T22:54:45.628Z,-0.50
2019-01-18T22:57:48.089Z,-0.50
2019-01-18T23:01:14.690Z,-0.50
2019-01-18T23:04:16.233Z,-0.50
2019-01-18T23:07:32.528Z,-0.50
2019-01-18T23:10:46.389Z,-0.60
2019-01-18T23:13:55.825Z,-0.50
2019-01-18T23:17:05.943Z,-0.50
2019-01-18T23:20:14.498Z,-0.50
2019-01-18T23:23:52.210Z,-0.50
2019-01-18T23:26:51.689Z,-0.60
2019-01-18T23:29:35.391Z,-0.50
2019-01-18T23:32:47.848Z,-0.50
2019-01-18T23:35:48.040Z,-0.60
2019-01-18T23:38:44.100Z,-0.70
2019-01-18T23:42:18.850Z,-0.80
2019-01-18T23:45:33.910Z,-0.80
2019-01-18T23:48:30.507Z,-0.80
2019-01-18T23:51:21.192Z,-0.80
2019-01-18T23:54:19.172Z,-0.80
2019-01-18T23:57:19.861Z,-0.80
